createdAt,value
2017-04-01T00:00:01.517Z,13.2
2017-04-01T00:05:01.473Z,13.1
2017-04-01T00:10:01.203Z,13.1
2017-04-01T00:15:02.101Z,13.1
2017-04-01T00:20:01.878Z,13
2017-04-01T00:25:01.580Z,13
2017-04-01T00:30:01.523Z,12.8
2017-04-01T00:35:01.650Z,12.8
2017-04-01T00:40:01.397Z,12.8
2017-04-01T00:45:01.297Z,12.8
2017-04-01T00:50:02.093Z,12.8
2017-04-01T00:55:01.798Z,12.8
2017-04-01T01:00:01.701Z,12.7
2017-04-01T01:05:01.597Z,12.7
2017-04-01T01:10:01.322Z,12.6
2017-04-01T01:15:01.925Z,12.6
2017-04-01T01:20:01.836Z,12.6
2017-04-01T01:25:01.832Z,12.6
2017-04-01T01:30:01.672Z,12.6
2017-04-01T01:35:01.858Z,12.6
2017-04-01T01:40:01.593Z,12.6
2017-04-01T01:45:01.407Z,12.6
2017-04-01T01:50:01.291Z,12.6
2017-04-01T01:55:02.021Z,12.6
2017-04-01T02:00:01.893Z,12.6
2017-04-01T02:05:02.167Z,12.4
2017-04-01T02:10:02.197Z,12.4
2017-04-01T02:15:01.817Z,12.4
2017-04-01T02:20:01.342Z,12.4
2017-04-01T02:25:01.792Z,12.4
2017-04-01T02:30:01.180Z,12.4
2017-04-01T02:35:01.428Z,12.4
2017-04-01T02:40:01.609Z,12.4
2017-04-01T02:45:01.985Z,12.1
2017-04-01T02:50:01.922Z,12.1
2017-04-01T02:55:01.962Z,12.1
2017-04-01T03:00:01.325Z,12.1
2017-04-01T03:05:01.925Z,12.1
2017-04-01T03:10:01.625Z,12
2017-04-01T03:15:01.918Z,12
2017-04-01T03:20:01.300Z,12
2017-04-01T03:25:01.357Z,12
2017-04-01T03:30:01.314Z,12
2017-04-01T03:35:01.911Z,12
2017-04-01T03:40:01.751Z,11.9
2017-04-01T03:45:02.104Z,11.8
2017-04-01T03:50:02.164Z,11.8
2017-04-01T03:55:02.056Z,11.8
2017-04-01T04:00:01.397Z,11.8
2017-04-01T04:05:01.908Z,11.7
2017-04-01T04:10:01.676Z,11.7
2017-04-01T04:15:01.676Z,11.7
2017-04-01T04:20:02.140Z,11.7
2017-04-01T04:25:02.159Z,11.7
2017-04-01T04:30:01.319Z,11.6
2017-04-01T04:35:01.561Z,11.6
2017-04-01T04:40:01.431Z,11.6
2017-04-01T04:45:01.243Z,11.6
2017-04-01T04:50:01.700Z,11.6
2017-04-01T04:55:01.657Z,11.6
2017-04-01T05:00:01.911Z,11.5
2017-04-01T05:05:01.847Z,11.5
2017-04-01T05:10:01.722Z,11.5
2017-04-01T05:15:01.986Z,11.5
2017-04-01T05:20:02.077Z,11.4
2017-04-01T05:25:01.242Z,11.5
2017-04-01T05:30:01.478Z,11.5
2017-04-01T05:35:01.272Z,11.5
2017-04-01T05:40:01.612Z,11.6
2017-04-01T05:45:01.347Z,11.6
2017-04-01T05:50:02.020Z,11.6
2017-04-01T05:55:01.748Z,11.6
2017-04-01T06:00:02.124Z,11.6
2017-04-01T06:05:01.571Z,11.7
2017-04-01T06:10:02.108Z,11.7
2017-04-01T06:15:01.314Z,11.8
2017-04-01T06:20:02.194Z,11.8
2017-04-01T06:25:01.709Z,11.9
2017-04-01T06:30:02.163Z,12
2017-04-01T06:35:02.031Z,12
2017-04-01T06:40:01.336Z,12.1
2017-04-01T06:45:01.510Z,12.2
2017-04-01T06:50:01.972Z,12.2
2017-04-01T06:55:01.802Z,12.4
2017-04-01T07:00:02.107Z,12.4
2017-04-01T07:05:01.507Z,12.5
2017-04-01T07:10:01.296Z,12.7
2017-04-01T07:15:02.016Z,12.7
2017-04-01T07:20:01.615Z,12.8
2017-04-01T07:25:01.964Z,12.9
2017-04-01T07:30:01.922Z,13
2017-04-01T07:35:01.783Z,13.2
2017-04-01T07:40:01.713Z,13.4
2017-04-01T07:45:01.745Z,13.6
2017-04-01T07:50:01.385Z,13.6
2017-04-01T07:55:01.256Z,14
2017-04-01T08:00:01.779Z,14.3
2017-04-01T08:05:01.228Z,14.4
2017-04-01T08:10:01.394Z,14.5
2017-04-01T08:15:01.857Z,15
2017-04-01T08:20:01.245Z,15
2017-04-01T08:25:01.633Z,15
2017-04-01T08:30:02.130Z,15
2017-04-01T08:35:02.062Z,15.2
2017-04-01T08:40:01.937Z,15.4
2017-04-01T08:45:01.722Z,15.6
2017-04-01T08:50:01.517Z,15.6
2017-04-01T08:55:01.191Z,15.6
2017-04-01T09:00:01.435Z,16
2017-04-01T09:05:01.743Z,16
2017-04-01T09:10:01.263Z,16
2017-04-01T09:15:01.623Z,16
2017-04-01T09:20:01.310Z,16.2
2017-04-01T09:25:01.386Z,16.3
2017-04-01T09:30:01.876Z,16.3
2017-04-01T09:35:02.122Z,16.6
2017-04-01T09:40:01.781Z,16.6
2017-04-01T09:45:01.472Z,16.8
2017-04-01T09:50:01.865Z,16.9
2017-04-01T09:55:01.619Z,17
2017-04-01T10:00:02.152Z,17.1
2017-04-01T10:05:01.203Z,17.2
2017-04-01T10:10:02.023Z,17.4
2017-04-01T10:15:01.188Z,17.5
2017-04-01T10:20:01.320Z,17.5
2017-04-01T10:25:01.391Z,17.8
2017-04-01T10:30:01.485Z,17.8
2017-04-01T10:35:01.669Z,18
2017-04-01T10:40:01.785Z,18
2017-04-01T10:45:01.978Z,18
2017-04-01T10:50:01.866Z,18
2017-04-01T10:55:01.705Z,18.2
2017-04-01T11:00:01.469Z,18.3
2017-04-01T11:05:01.331Z,18.3
2017-04-01T11:10:01.850Z,18.5
2017-04-01T11:15:01.517Z,18.5
2017-04-01T11:20:01.190Z,18.5
2017-04-01T11:25:01.941Z,18.5
2017-04-01T11:30:01.939Z,18.5
2017-04-01T11:35:02.266Z,18.6
2017-04-01T11:40:01.468Z,18.6
2017-04-01T11:45:02.009Z,18.5
2017-04-01T11:50:02.075Z,18.5
2017-04-01T11:55:01.363Z,18.5
2017-04-01T12:00:01.746Z,18.6
2017-04-01T12:05:02.158Z,18.6
2017-04-01T12:10:02.111Z,18.5
2017-04-01T12:15:01.981Z,18.4
2017-04-01T12:20:01.804Z,18.5
2017-04-01T12:25:01.660Z,18.4
2017-04-01T12:30:01.576Z,18.5
2017-04-01T12:35:01.642Z,18.5
2017-04-01T12:40:02.154Z,18.5
2017-04-01T12:45:02.030Z,18.6
2017-04-01T12:50:02.006Z,18.6
2017-04-01T12:55:02.015Z,18.7
2017-04-01T13:00:01.669Z,18.7
2017-04-01T13:05:01.669Z,18.8
2017-04-01T13:10:01.910Z,18.8
2017-04-01T13:15:02.098Z,18.8
2017-04-01T13:20:01.312Z,18.8
2017-04-01T13:25:01.353Z,18.9
2017-04-01T13:30:01.523Z,19
2017-04-01T13:35:01.761Z,19
2017-04-01T13:40:02.066Z,19
2017-04-01T13:45:01.904Z,19
2017-04-01T13:50:01.749Z,18.9
2017-04-01T13:55:01.968Z,18.9
2017-04-01T14:00:01.838Z,19
2017-04-01T14:05:01.830Z,19
2017-04-01T14:10:02.255Z,19
2017-04-01T14:15:01.862Z,19
2017-04-01T14:20:01.831Z,19
2017-04-01T14:25:01.620Z,19
2017-04-01T14:30:01.517Z,18.9
2017-04-01T14:35:01.896Z,18.8
2017-04-01T14:40:01.660Z,18.8
2017-04-01T14:45:02.064Z,18.8
2017-04-01T14:50:01.467Z,18.4
2017-04-01T14:55:01.415Z,18.3
2017-04-01T15:00:02.105Z,18.2
2017-04-01T15:05:01.675Z,17.9
2017-04-01T15:10:02.091Z,17.9
2017-04-01T15:15:01.873Z,17.2
2017-04-01T15:20:01.442Z,16.8
2017-04-01T15:25:01.806Z,16.5
2017-04-01T15:30:01.680Z,16.3
2017-04-01T15:35:01.852Z,16
2017-04-01T15:40:02.495Z,15.9
2017-04-01T15:45:01.660Z,15.8
2017-04-01T15:50:01.620Z,15.7
2017-04-01T15:55:01.872Z,15.7
2017-04-01T16:00:01.220Z,15.6
2017-04-01T16:05:02.073Z,15.6
2017-04-01T16:10:01.784Z,15.6
2017-04-01T16:15:02.358Z,15.5
2017-04-01T16:20:01.503Z,15.5
2017-04-01T16:25:01.793Z,15.3
2017-04-01T16:30:01.919Z,15.2
2017-04-01T16:35:01.694Z,15.1
2017-04-01T16:40:01.906Z,15
2017-04-01T16:45:01.930Z,15
2017-04-01T16:50:01.749Z,15
2017-04-01T16:55:01.727Z,15
2017-04-01T17:00:01.950Z,15
2017-04-01T17:05:01.778Z,15
2017-04-01T17:10:01.886Z,15
2017-04-01T17:15:01.792Z,14.6
2017-04-01T17:20:01.407Z,14.6
2017-04-01T17:25:01.795Z,14.6
2017-04-01T17:30:01.540Z,14.1
2017-04-01T17:35:01.544Z,14
2017-04-01T17:40:01.426Z,13.9
2017-04-01T17:45:01.813Z,13.8
2017-04-01T17:50:01.480Z,13.7
2017-04-01T17:55:01.893Z,13.6
2017-04-01T18:00:01.840Z,13.5
2017-04-01T18:05:01.652Z,13.4
2017-04-01T18:10:01.346Z,13.4
2017-04-01T18:15:01.635Z,13.2
2017-04-01T18:20:01.790Z,13
2017-04-01T18:25:01.731Z,13
2017-04-01T18:30:02.267Z,12.8
2017-04-01T18:35:02.457Z,12.8
2017-04-01T18:40:01.538Z,12.7
2017-04-01T18:45:01.759Z,12.7
2017-04-01T18:50:02.052Z,12.7
2017-04-01T18:55:01.641Z,12.7
2017-04-01T19:00:01.335Z,12.7
2017-04-01T19:05:01.693Z,12.6
2017-04-01T19:10:02.093Z,12.6
2017-04-01T19:15:02.041Z,12.6
2017-04-01T19:20:01.397Z,12.6
2017-04-01T19:25:01.658Z,12.6
2017-04-01T19:30:01.379Z,12.6
2017-04-01T19:35:01.810Z,12.6
2017-04-01T19:40:02.233Z,12.6
2017-04-01T19:45:01.551Z,12.6
2017-04-01T19:50:01.665Z,12.6
2017-04-01T19:55:02.055Z,12.7
2017-04-01T20:00:01.677Z,12.7
2017-04-01T20:05:01.408Z,12.7
2017-04-01T20:10:02.155Z,12.7
2017-04-01T20:15:01.923Z,12.7
2017-04-01T20:20:01.644Z,12.7
2017-04-01T20:25:01.985Z,12.3
2017-04-01T20:30:01.970Z,12.3
2017-04-01T20:35:01.992Z,12
2017-04-01T20:40:01.394Z,12
2017-04-01T20:45:01.262Z,12
2017-04-01T20:50:02.160Z,11.8
2017-04-01T20:55:01.372Z,11.7
2017-04-01T21:00:01.214Z,11.6
2017-04-01T21:05:01.657Z,11.6
2017-04-01T21:10:01.394Z,11.6
2017-04-01T21:15:02.110Z,11.6
2017-04-01T21:20:02.047Z,11.5
2017-04-01T21:25:01.935Z,11.5
2017-04-01T21:30:02.066Z,11.5
2017-04-01T21:35:01.410Z,11.5
2017-04-01T21:40:01.773Z,11.5
2017-04-01T21:45:01.205Z,11.5
2017-04-01T21:50:01.492Z,11.5
2017-04-01T21:55:01.408Z,11.5
2017-04-01T22:00:01.996Z,11.6
2017-04-01T22:05:01.979Z,11.6
2017-04-01T22:10:01.682Z,11.6
2017-04-01T22:15:01.495Z,11.6
2017-04-01T22:20:01.980Z,11.6
2017-04-01T22:25:02.041Z,11.6
2017-04-01T22:30:01.923Z,11.6
2017-04-01T22:35:01.812Z,11.6
2017-04-01T22:40:01.761Z,11.6
2017-04-01T22:45:01.776Z,11.6
2017-04-01T22:50:01.743Z,11.6
2017-04-01T22:55:01.517Z,11.6
2017-04-01T23:00:01.371Z,11.7
2017-04-01T23:05:02.126Z,11.6
2017-04-01T23:10:01.795Z,11.7
2017-04-01T23:15:02.147Z,11.7
2017-04-01T23:20:02.007Z,11.6
2017-04-01T23:25:02.143Z,11.7
2017-04-01T23:30:02.022Z,11.6
2017-04-01T23:35:02.079Z,11.6
2017-04-01T23:40:02.130Z,11.6
2017-04-01T23:45:01.193Z,11.6
2017-04-01T23:50:02.102Z,11.6
2017-04-01T23:55:01.791Z,11.6
